Ostrander, Minnesota
Current Conditions -  °F | °C
As of 9:55 PM on Saturday 20 Dec 2014 (Local Time) from KFKA Reporting Station
Haze Haze  
Wind Chill: 23°   Ceiling: 600
Heat Index: 29°   Visibility: 3mi
Dew Point: 28°   Wind: 6mph
Humidity: 96%   Direction: 140°SE
Pressure: 30.11"   Gusts: NA
Location:  43.61°N, 92.43°W
Report Text: KFKA 210355Z AUTO 14005KT 3SM BR BKN006 BKN009 OVC017 M01/M02 A3011 RMK AO2 T10141020
Loading
Personal Weather Stations






























Interactive Weather Map New forecast layout! Learn more

10-Day Weather Forecast

Advertisements
Track Severe Weather on mobile